Carlos Rovirosa Pérez International Airport
MMVA : now visible

Airfield :











YOU CAN JOIN US ON...

 
LOGIN :

Register | Disclaimer

   EN    FR    IT 

 









Legend :    VFR   Marginal VFR   IFR   Intensive IFR   Very Intensive IFR
Visi :
Ceiling :
>= 8 km
>= 3000ft
5 to 8 km
1000 to 3000 ft
1500m to 5 km
500 to 1000 ft
800 to 1500m
200 to 500 ft
< 800m
< 200 ft
Symbols :   Thunderstorms  Fog  Heavy snow  Heavy precipitations  Wind > 20 kt






- Airport Elevation : 46 ft
- IATA code : VSA


MMVA - Carlos Rovirosa Pérez International

CURRENT METAR :
  • 281442Z 08006KT 4SM BKN015 24/24 A2994 RMK SLP136 52014 978 8/600 BR DSIPTG

EXPIRED METARs :
  • 281344Z 00000KT 2 1/2SM BR BKN007 22/22 A2993 RMK 8/600 VRB CONDS
  • 281243Z 00000KT 2SM BR BKN005 21/21 A2992 RMK 8/600 VRB CONDS

TAF AMD TAF MMVA
Valid from the 28 at 15:00 until the 29 at 06:00 UTC


281501Z 2815/2906 08006KT 4SM BR HZ BKN015
FM281800 03010KT 6SM HZ SCT020
FM290200 03005KT 6SM HZ SCT015



MET'MAP, your aeronautical weather chart ! - Copyright ORBIFLY December 2007 - Disclaimer

ORBIFLY MET'MAP TEAM :

Programming & Development : Alexandra Zaïnal
Concept & original design : Baudouin d'Aumeries
Assistance for programming : Marc-Olivier Méhu
Technical & hardware support : Manuel Goepfert

Contact : metmap@orbifly.com




SOURCES & CREDITS :

   NOAA       Earth
Advisory